Time;durP1;ratioP1;P1;durP2;ratioP2;P2;SDS_P1;SDS_P2;PMS_P1;PMS_P2;Temp;Humidity;BMP_temperature;BMP_pressure;BME280_temperature;BME280_humidity;BME280_pressure;Samples;Min_cycle;Max_cycle;Signal;HPM_P1;HPM_P2
2022/11/22 00:01:08;;;;;;;;;;;;;;;15.36;48.41;98050.88;4991773;28;19917;-75
2022/11/22 00:03:33;;;;;;;;;;;;;;;15.32;48.36;98050.38;4991788;28;20332;-75
2022/11/22 00:05:58;;;;;;;;;;;;;;;15.30;48.27;98044.44;4991910;28;19924;-75
2022/11/22 00:08:24;;;;;;;;;;;;;;;15.26;48.23;98044.94;5007564;28;19998;-85
2022/11/22 00:10:49;;;;;;;;;;;;;;;15.23;48.16;98040.84;5014802;28;19921;-76
2022/11/22 00:13:15;;;;;;;;;;;;;;;15.21;48.07;98034.91;5014297;28;19924;-76
2022/11/22 00:15:40;;;;;;;;;;;;;;;15.17;47.77;98037.06;5014929;28;19917;-76
2022/11/22 00:18:05;;;;;;;;;;;;;;;15.14;47.65;98047.06;5032492;28;20354;-76
2022/11/22 00:20:31;;;;;;;;;;;;;;;15.11;46.99;98045.59;5014248;28;20003;-76
2022/11/22 00:22:57;;;;;;;;;;;;;;;15.10;47.18;98043.97;5010742;28;19921;-76
2022/11/22 00:25:22;;;;;;;;;;;;;;;15.07;46.81;98053.97;4999230;28;19929;-76
2022/11/22 00:27:47;;;;;;;;;;;;;;;15.07;46.65;98048.69;4975294;28;19918;-76
2022/11/22 00:30:13;;;;;;;;;;;;;;;15.01;46.54;98045.75;4975436;28;19961;-76
2022/11/22 00:32:38;;;;;;;;;;;;;;;14.97;46.24;98051.47;4991920;28;20475;-76
2022/11/22 00:35:03;;;;;;;;;;;;;;;14.93;45.89;98044.94;4959258;28;19917;-76
2022/11/22 00:37:29;;;;;;;;;;;;;;;14.87;45.82;98054.25;4975861;28;19976;-76
2022/11/22 00:39:54;;;;;;;;;;;;;;;14.84;45.76;98052.78;4992628;28;20336;-76
2022/11/22 00:42:19;;;;;;;;;;;;;;;14.83;45.85;98061.66;4995005;28;19932;-76
2022/11/22 00:44:44;;;;;;;;;;;;;;;14.80;45.73;98072.47;4979501;28;19929;-76
2022/11/22 00:47:10;;;;;;;;;;;;;;;14.79;45.86;98081.34;4979161;28;19956;-76
2022/11/22 00:49:35;;;;;;;;;;;;;;;14.77;45.82;98085.94;4996658;28;19918;-76
2022/11/22 00:52:00;;;;;;;;;;;;;;;14.74;46.31;98091.50;4979238;28;19918;-76
2022/11/22 00:54:26;;;;;;;;;;;;;;;14.74;46.33;98095.94;4978858;28;19989;-76
2022/11/22 00:56:51;;;;;;;;;;;;;;;14.74;46.33;98096.75;4979036;28;20435;-76
2022/11/22 00:59:16;;;;;;;;;;;;;;;14.73;46.45;98095.09;4978743;28;19918;-78
2022/11/22 01:01:41;;;;;;;;;;;;;;;14.71;45.98;98098.91;4994268;28;19917;-76
2022/11/22 01:04:07;;;;;;;;;;;;;;;14.65;45.74;98106.41;4978757;28;20013;-76
2022/11/22 01:06:32;;;;;;;;;;;;;;;14.57;45.66;98108.97;4978753;28;19956;-76
2022/11/22 01:08:57;;;;;;;;;;;;;;;14.51;45.45;98114.03;4978791;28;19924;-77
2022/11/22 01:11:23;;;;;;;;;;;;;;;14.47;45.71;98106.47;4962119;28;19943;-76
2022/11/22 01:13:48;;;;;;;;;;;;;;;14.48;45.38;98108.13;4978400;28;19949;-76
2022/11/22 01:16:13;;;;;;;;;;;;;;;14.41;45.06;98099.22;4978492;28;20347;-76
2022/11/22 01:18:39;;;;;;;;;;;;;;;14.41;45.29;98095.78;4995872;28;19918;-76
2022/11/22 01:21:04;;;;;;;;;;;;;;;14.43;45.15;98099.06;4978590;28;19922;-76
2022/11/22 01:23:30;;;;;;;;;;;;;;;14.45;45.04;98103.19;4978379;28;19964;-76
2022/11/22 01:25:55;;;;;;;;;;;;;;;14.47;45.20;98109.09;4978132;28;19967;-76
2022/11/22 01:28:20;;;;;;;;;;;;;;;14.47;45.60;98095.16;4995551;28;20400;-76
2022/11/22 01:30:48;;;;;;;;;;;;;;;14.47;45.47;98090.72;4978212;28;19918;-76
2022/11/22 01:33:13;;;;;;;;;;;;;;;14.47;45.63;98089.91;4997274;28;19918;-76
2022/11/22 01:35:39;;;;;;;;;;;;;;;14.47;45.70;98079.41;4997729;28;19925;-76
2022/11/22 01:38:04;;;;;;;;;;;;;;;14.45;45.91;98086.59;5015239;28;20377;-75
2022/11/22 01:40:29;;;;;;;;;;;;;;;14.44;45.98;98087.59;4985365;28;19921;-75
2022/11/22 01:42:56;;;;;;;;;;;;;;;14.41;45.94;98098.41;5014720;28;19922;-75
2022/11/22 01:45:30;;;;;;;;;;;;;;;14.37;45.80;98108.38;4997311;28;19987;-75
2022/11/22 01:47:55;;;;;;;;;;;;;;;14.33;45.79;98121.97;4997227;28;19922;-75
2022/11/22 01:50:21;;;;;;;;;;;;;;;14.29;45.46;98126.72;4997405;28;19917;-75
2022/11/22 01:52:46;;;;;;;;;;;;;;;14.24;45.74;98136.88;5012687;28;19976;-76
2022/11/22 01:55:12;;;;;;;;;;;;;;;14.17;45.73;98136.69;5013469;28;19921;-75
2022/11/22 01:57:37;;;;;;;;;;;;;;;14.15;45.87;98122.88;4997196;28;19921;-75
2022/11/22 02:00:04;;;;;;;;;;;;;;;14.10;45.84;98118.09;5013858;28;19971;-75
2022/11/22 02:02:29;;;;;;;;;;;;;;;14.06;45.94;98119.38;4997431;28;19921;-75
2022/11/22 02:04:55;;;;;;;;;;;;;;;14.04;45.66;98120.50;4997123;28;20281;-75
2022/11/22 02:07:21;;;;;;;;;;;;;;;14.03;45.97;98118.88;4996983;28;19917;-75
2022/11/22 02:09:47;;;;;;;;;;;;;;;13.98;46.25;98118.50;4996751;28;19921;-75
2022/11/22 02:12:12;;;;;;;;;;;;;;;13.97;46.09;98122.91;5012768;28;19979;-75
2022/11/22 02:14:37;;;;;;;;;;;;;;;13.93;46.52;98119.78;5013202;28;19917;-76
2022/11/22 02:17:03;;;;;;;;;;;;;;;13.92;46.38;98133.88;4996930;28;19993;-75
2022/11/22 02:19:37;;;;;;;;;;;;;;;13.89;46.76;98138.63;4996577;28;19972;-75
2022/11/22 02:22:06;;;;;;;;;;;;;;;13.84;46.91;98141.69;5014183;28;20331;-76
2022/11/22 02:24:55;;;;;;;;;;;;;;;13.81;47.01;98139.38;5012687;28;19917;-76
2022/11/22 02:27:20;;;;;;;;;;;;;;;13.76;46.73;98144.25;5003422;28;20436;-75
2022/11/22 02:29:45;;;;;;;;;;;;;;;13.74;46.73;98156.69;5013981;28;20021;-75
2022/11/22 02:32:11;;;;;;;;;;;;;;;13.70;46.74;98155.34;4996404;28;19925;-75
2022/11/22 02:34:40;;;;;;;;;;;;;;;13.66;46.84;98154.84;4996218;28;19918;-76
2022/11/22 02:37:05;;;;;;;;;;;;;;;13.62;46.85;98156.09;5012959;28;20312;-75
2022/11/22 02:39:31;;;;;;;;;;;;;;;13.58;46.84;98167.84;5012939;28;19918;-75
2022/11/22 02:41:56;;;;;;;;;;;;;;;13.54;47.05;98167.34;5012650;28;19925;-76
2022/11/22 02:44:21;;;;;;;;;;;;;;;13.52;46.96;98169.28;4996189;28;19979;-76
2022/11/22 02:46:47;;;;;;;;;;;;;;;13.49;47.08;98163.50;5012068;28;19972;-76
2022/11/22 02:49:14;;;;;;;;;;;;;;;13.48;47.08;98170.56;5012367;28;20015;-76
2022/11/22 02:51:39;;;;;;;;;;;;;;;13.45;47.06;98170.03;4995722;28;20008;-76
2022/11/22 02:54:05;;;;;;;;;;;;;;;13.38;47.11;98178.50;5013228;28;19960;-75
2022/11/22 02:56:30;;;;;;;;;;;;;;;13.34;46.98;98174.50;5012810;28;20398;-76
2022/11/22 02:58:55;;;;;;;;;;;;;;;13.31;47.06;98168.72;4995701;28;19917;-75
2022/11/22 03:01:21;;;;;;;;;;;;;;;13.29;46.84;98173.28;5013345;28;19924;-76
2022/11/22 03:03:46;;;;;;;;;;;;;;;13.27;47.03;98164.75;5012166;28;19968;-76
2022/11/22 03:06:11;;;;;;;;;;;;;;;13.18;47.09;98164.66;4995559;28;19917;-76
2022/11/22 03:08:36;;;;;;;;;;;;;;;13.16;47.08;98163.97;4995924;28;19917;-76
2022/11/22 03:11:02;;;;;;;;;;;;;;;13.12;47.14;98167.84;4995396;28;19929;-75
2022/11/22 03:13:27;;;;;;;;;;;;;;;13.07;47.00;98164.88;4995551;28;19953;-76
2022/11/22 03:15:52;;;;;;;;;;;;;;;13.03;47.30;98182.69;5012279;28;19924;-75
2022/11/22 03:18:18;;;;;;;;;;;;;;;13.00;46.84;98187.41;4995337;28;19982;-76
2022/11/22 03:20:43;;;;;;;;;;;;;;;12.95;46.95;98185.22;4995184;28;20466;-75
2022/11/22 03:23:08;;;;;;;;;;;;;;;12.93;47.21;98175.84;5012025;28;19925;-75
2022/11/22 03:25:37;;;;;;;;;;;;;;;12.88;47.19;98180.69;5013274;28;19922;-75
2022/11/22 03:28:02;;;;;;;;;;;;;;;12.85;46.84;98181.81;5013370;28;19917;-76
2022/11/22 03:30:27;;;;;;;;;;;;;;;12.82;47.10;98193.41;5011830;28;19924;-75
2022/11/22 03:32:53;;;;;;;;;;;;;;;12.77;46.90;98185.13;5012250;28;20344;-76
2022/11/22 03:35:18;;;;;;;;;;;;;;;12.74;46.98;98190.66;4995434;28;20282;-75
2022/11/22 03:37:43;;;;;;;;;;;;;;;12.73;46.82;98189.03;5011961;28;19932;-78
2022/11/22 03:40:09;;;;;;;;;;;;;;;12.69;47.03;98190.28;4995204;28;19917;-75
2022/11/22 03:42:34;;;;;;;;;;;;;;;12.64;47.20;98195.94;4995755;28;19944;-74
2022/11/22 03:44:59;;;;;;;;;;;;;;;12.60;47.22;98191.97;5013132;28;19956;-77
2022/11/22 03:47:24;;;;;;;;;;;;;;;12.58;47.00;98203.56;5011723;28;19921;-78
2022/11/22 03:49:50;;;;;;;;;;;;;;;12.57;46.99;98199.28;4995002;28;19924;-75
2022/11/22 03:52:15;;;;;;;;;;;;;;;12.52;47.25;98206.72;5013126;28;19940;-77
2022/11/22 03:54:40;;;;;;;;;;;;;;;12.51;47.18;98215.53;5011540;28;19917;-75
2022/11/22 03:57:06;;;;;;;;;;;;;;;12.51;46.99;98220.78;5011549;28;19917;-77
2022/11/22 03:59:31;;;;;;;;;;;;;;;12.45;47.05;98217.78;5001695;28;20393;-78
2022/11/22 04:01:56;;;;;;;;;;;;;;;12.44;47.42;98225.75;4992753;28;20411;-75
2022/11/22 04:04:22;;;;;;;;;;;;;;;12.42;47.11;98227.72;4975396;28;19917;-75
2022/11/22 04:06:47;;;;;;;;;;;;;;;12.39;47.38;98226.19;4993787;28;19921;-75
2022/11/22 04:09:12;;;;;;;;;;;;;;;12.36;47.68;98231.69;4975591;28;19918;-77
2022/11/22 04:11:37;;;;;;;;;;;;;;;12.33;47.58;98228.56;4975707;28;20353;-76
2022/11/22 04:17:03;;;;;;;;;;;;;;;12.28;47.68;98237.63;4916108;29;20394;-76
2022/11/22 04:19:29;;;;;;;;;;;;;;;12.27;47.61;98243.84;4902097;29;19919;-76
2022/11/22 04:21:54;;;;;;;;;;;;;;;12.25;47.39;98244.94;4917901;29;19923;-77
2022/11/22 04:27:03;;;;;;;;;;;;;;;12.21;47.42;98256.69;4917718;29;19926;-77
2022/11/22 04:29:28;;;;;;;;;;;;;;;12.18;47.66;98251.72;4919214;29;19919;-78
2022/11/22 04:34:38;;;;;;;;;;;;;;;12.11;47.71;98265.34;4936803;29;19926;-76
2022/11/22 04:37:03;;;;;;;;;;;;;;;12.08;47.68;98257.78;4936628;29;19919;-76
2022/11/22 04:39:28;;;;;;;;;;;;;;;12.06;47.74;98259.69;4920141;29;20006;-76
2022/11/22 04:44:41;;;;;;;;;;;;;;;12.01;47.56;98267.13;4936557;29;20457;-75
2022/11/22 04:47:09;;;;;;;;;;;;;;;12.01;47.64;98269.75;4936312;29;20305;-75
2022/11/22 04:49:35;;;;;;;;;;;;;;;12.01;47.39;98277.59;4936024;29;20433;-76
2022/11/22 04:54:44;;;;;;;;;;;;;;;11.96;47.15;98284.22;5003003;28;20447;-75
2022/11/22 04:57:09;;;;;;;;;;;;;;;11.96;51.84;98294.69;5003123;28;20008;-77
2022/11/22 04:59:35;;;;;;;;;;;;;;;11.92;50.39;98299.34;4987955;28;19960;-76
2022/11/22 05:02:00;;;;;;;;;;;;;;;11.93;50.12;98304.44;5007371;28;20093;-90
2022/11/22 05:04:25;;;;;;;;;;;;;;;11.90;49.58;98306.47;4998618;28;20388;-76
2022/11/22 05:06:50;;;;;;;;;;;;;;;11.99;55.69;98317.94;4984954;28;19944;-79
2022/11/22 05:09:16;;;;;;;;;;;;;;;11.94;52.31;98327.03;4996062;28;20064;-79
2022/11/22 05:11:41;;;;;;;;;;;;;;;11.91;51.20;98334.28;4958677;28;19964;-77
2022/11/22 05:14:07;;;;;;;;;;;;;;;11.90;50.94;98328.22;4974094;28;19922;-78
2022/11/22 05:16:33;;;;;;;;;;;;;;;11.89;50.29;98333.56;4975343;28;19919;-77
2022/11/22 05:18:58;;;;;;;;;;;;;;;11.88;50.35;98348.44;4975694;28;20090;-79
2022/11/22 05:21:24;;;;;;;;;;;;;;;11.87;50.14;98346.78;4976171;28;19922;-78
2022/11/22 05:23:55;;;;;;;;;;;;;;;11.87;49.90;98353.81;4959054;28;19984;-92
2022/11/22 05:26:21;;;;;;;;;;;;;;;11.89;49.50;98351.88;5004742;28;19925;-91
2022/11/22 05:28:46;;;;;;;;;;;;;;;11.96;48.92;98360.88;5014207;28;19921;-90
2022/11/22 05:31:13;;;;;;;;;;;;;;;12.03;49.04;98361.97;5031287;28;19948;-91
2022/11/22 05:33:39;;;;;;;;;;;;;;;12.15;48.62;98357.47;5014409;28;19917;-92
2022/11/22 05:36:04;;;;;;;;;;;;;;;12.29;48.23;98361.47;5013923;28;19924;-92
2022/11/22 05:38:30;;;;;;;;;;;;;;;12.46;47.52;98359.94;5015523;28;19925;-91
2022/11/22 05:40:55;;;;;;;;;;;;;;;12.70;47.09;98364.78;5030852;28;19917;-91
2022/11/22 05:43:20;;;;;;;;;;;;;;;12.98;46.55;98367.47;5012936;28;20037;-92
2022/11/22 05:45:45;;;;;;;;;;;;;;;13.32;45.92;98361.72;5011212;28;19922;-91
2022/11/22 05:48:11;;;;;;;;;;;;;;;13.67;45.35;98365.47;4995843;28;20372;-92
2022/11/22 05:50:36;;;;;;;;;;;;;;;14.03;44.67;98361.13;5010599;28;19925;-90
2022/11/22 05:53:01;;;;;;;;;;;;;;;14.47;43.92;98355.13;4995884;28;19918;-92
2022/11/22 05:55:27;;;;;;;;;;;;;;;14.92;42.75;98359.44;4994427;28;19921;-89
2022/11/22 05:57:52;;;;;;;;;;;;;;;15.36;41.85;98354.09;4994332;28;20423;-90
2022/11/22 06:00:18;;;;;;;;;;;;;;;15.94;40.20;98353.53;5012586;28;19941;-90
2022/11/22 06:02:43;;;;;;;;;;;;;;;16.57;38.88;98350.34;5001228;28;19918;-92
2022/11/22 06:05:08;;;;;;;;;;;;;;;17.34;37.52;98349.88;4999254;28;19917;-90
2022/11/22 06:07:34;;;;;;;;;;;;;;;18.17;35.79;98352.16;5014731;28;19926;-91
2022/11/22 06:09:59;;;;;;;;;;;;;;;19.19;33.77;98351.00;5016381;28;20448;-90
2022/11/22 06:12:24;;;;;;;;;;;;;;;20.26;31.49;98355.81;5020593;28;19925;-89
2022/11/22 06:14:49;;;;;;;;;;;;;;;21.32;29.77;98360.34;5019297;28;19925;-91
2022/11/22 06:17:15;;;;;;;;;;;;;;;22.39;28.30;98348.31;5002713;28;19939;-89
2022/11/22 06:19:40;;;;;;;;;;;;;;;23.34;26.72;98341.91;4983651;28;19922;-90
2022/11/22 06:22:06;;;;;;;;;;;;;;;24.14;25.25;98354.09;4983108;28;19945;-91
2022/11/22 06:24:31;;;;;;;;;;;;;;;24.76;24.52;98353.50;4988805;28;20504;-88
2022/11/22 06:26:56;;;;;;;;;;;;;;;25.14;23.67;98366.69;4980619;28;19960;-91
2022/11/22 06:29:21;;;;;;;;;;;;;;;25.31;23.38;98371.50;4965469;28;20008;-90
2022/11/22 06:31:47;;;;;;;;;;;;;;;25.36;23.10;98385.81;4968718;28;19933;-89
2022/11/22 06:34:12;;;;;;;;;;;;;;;25.26;23.01;98388.97;5008653;28;19943;-83
2022/11/22 06:36:38;;;;;;;;;;;;;;;24.94;23.15;98369.56;4990940;28;20001;-88
2022/11/22 06:39:03;;;;;;;;;;;;;;;24.70;23.63;98384.53;5009690;28;19918;-86
2022/11/22 06:41:33;;;;;;;;;;;;;;;24.50;23.86;98379.31;5015508;28;20359;-86
2022/11/22 06:43:59;;;;;;;;;;;;;;;24.37;24.01;98390.91;5014990;28;19921;-86
2022/11/22 06:46:24;;;;;;;;;;;;;;;24.34;24.40;98397.47;5015429;28;19972;-87
2022/11/22 06:48:50;;;;;;;;;;;;;;;24.45;24.04;98390.63;5015636;28;20093;-90
2022/11/22 06:51:15;;;;;;;;;;;;;;;24.55;23.54;98398.97;5000477;28;19944;-91
2022/11/22 06:53:41;;;;;;;;;;;;;;;24.93;32.40;98414.13;5020663;28;19979;-88
2022/11/22 06:56:10;;;;;;;;;;;;;;;25.02;28.32;98411.19;4985167;28;19961;-89
2022/11/22 06:58:35;;;;;;;;;;;;;;;25.40;34.43;98419.06;4962406;28;20385;-80
2022/11/22 07:01:01;;;;;;;;;;;;;;;25.70;33.38;98421.03;5006879;28;19924;-90
2022/11/22 07:03:26;;;;;;;;;;;;;;;25.93;33.69;98428.34;4997460;28;20004;-78
2022/11/22 07:05:52;;;;;;;;;;;;;;;26.16;32.54;98427.69;5000419;28;19917;-92
2022/11/22 07:08:17;;;;;;;;;;;;;;;26.30;32.41;98435.56;5003697;28;20375;-89
2022/11/22 07:10:43;;;;;;;;;;;;;;;26.46;32.38;98436.78;5016700;28;19926;-90
2022/11/22 07:13:08;;;;;;;;;;;;;;;26.67;31.34;98440.81;5014582;28;19929;-86
2022/11/22 07:15:33;;;;;;;;;;;;;;;26.85;32.06;98442.59;5019194;28;19917;-91
2022/11/22 07:17:58;;;;;;;;;;;;;;;27.10;31.84;98441.59;5016921;28;20000;-90
2022/11/22 07:20:24;;;;;;;;;;;;;;;27.29;31.04;98436.94;5018221;28;20281;-91
2022/11/22 07:22:49;;;;;;;;;;;;;;;27.39;29.98;98432.66;4999908;28;19983;-81
2022/11/22 07:25:14;;;;;;;;;;;;;;;27.56;29.09;98431.94;5016251;28;19922;-88
2022/11/22 07:27:40;;;;;;;;;;;;;;;27.73;26.61;98427.50;5014196;28;19940;-84
2022/11/22 07:30:05;;;;;;;;;;;;;;;27.70;25.40;98425.28;4993840;28;19957;-88
2022/11/22 07:32:31;;;;;;;;;;;;;;;27.77;25.57;98430.53;5006685;28;19922;-86
2022/11/22 07:34:56;;;;;;;;;;;;;;;27.87;24.36;98436.09;5005266;28;20411;-87
2022/11/22 07:37:21;;;;;;;;;;;;;;;27.94;24.06;98431.44;5015330;28;19918;-87
2022/11/22 07:39:46;;;;;;;;;;;;;;;28.05;23.87;98421.72;5014355;28;19971;-87
2022/11/22 07:42:12;;;;;;;;;;;;;;;28.15;24.09;98424.59;5015262;28;19921;-89
2022/11/22 07:44:37;;;;;;;;;;;;;;;28.15;23.36;98424.59;5008022;28;20312;-84
2022/11/22 07:47:02;;;;;;;;;;;;;;;28.22;26.10;98421.78;4998224;28;19920;-81
2022/11/22 07:49:28;;;;;;;;;;;;;;;28.27;26.61;98415.69;5012825;28;20376;-80
2022/11/22 07:51:54;;;;;;;;;;;;;;;28.17;22.21;98415.50;4996832;28;19920;-85
2022/11/22 07:54:20;;;;;;;;;;;;;;;26.78;22.19;98415.94;5032935;28;19917;-86
2022/11/22 07:56:45;;;;;;;;;;;;;;;25.77;23.77;98428.97;5019345;28;19963;-88
2022/11/22 07:59:10;;;;;;;;;;;;;;;25.44;24.38;98430.13;5003737;28;19949;-84
2022/11/22 08:01:36;;;;;;;;;;;;;;;25.14;24.80;98429.97;4993473;28;19976;-83
2022/11/22 08:04:01;;;;;;;;;;;;;;;24.89;25.16;98420.94;4976086;28;19975;-83
2022/11/22 08:06:26;;;;;;;;;;;;;;;24.13;25.52;98417.28;4976553;28;19941;-81
2022/11/22 08:08:52;;;;;;;;;;;;;;;24.12;25.72;98420.16;4959969;28;19921;-79
2022/11/22 08:11:17;;;;;;;;;;;;;;;24.49;32.62;98425.69;4977172;28;19921;-78
2022/11/22 08:13:43;;;;;;;;;;;;;;;24.79;28.20;98427.78;5008953;28;20278;-78
2022/11/22 08:16:10;;;;;;;;;;;;;;;25.10;28.95;98434.94;4995159;28;20402;-78
2022/11/22 08:18:36;;;;;;;;;;;;;;;25.27;27.90;98436.03;4995178;28;19918;-77
2022/11/22 08:21:10;;;;;;;;;;;;;;;25.48;26.22;98430.53;4995753;28;19917;-89
2022/11/22 08:23:36;;;;;;;;;;;;;;;25.35;25.76;98428.78;5001398;28;20028;-87
2022/11/22 08:26:03;;;;;;;;;;;;;;;25.29;24.36;98419.81;5016326;28;19917;-86
2022/11/22 08:28:28;;;;;;;;;;;;;;;25.20;24.32;98421.09;4999873;28;20408;-82
2022/11/22 08:31:03;;;;;;;;;;;;;;;25.19;26.13;98422.97;5014240;28;19918;-85
2022/11/22 08:33:28;;;;;;;;;;;;;;;25.34;24.57;98430.66;4996389;28;19917;-90
2022/11/22 08:35:54;;;;;;;;;;;;;;;25.32;24.73;98431.88;4995553;28;19925;-84
2022/11/22 08:38:19;;;;;;;;;;;;;;;25.18;23.63;98436.53;5024489;28;20312;-85
2022/11/22 08:40:47;;;;;;;;;;;;;;;24.91;24.27;98428.72;4999584;28;20289;-89
2022/11/22 08:43:13;;;;;;;;;;;;;;;24.85;24.36;98438.41;5013992;28;20015;-84
2022/11/22 08:45:38;;;;;;;;;;;;;;;24.81;26.70;98444.41;4987302;28;19926;-82
2022/11/22 08:48:03;;;;;;;;;;;;;;;25.10;25.97;98443.75;5014599;28;20398;-81
2022/11/22 08:50:29;;;;;;;;;;;;;;;25.14;23.13;98440.66;5013680;28;20440;-82
2022/11/22 08:52:54;;;;;;;;;;;;;;;25.04;23.01;98441.97;4992833;28;19928;-79
2022/11/22 08:55:19;;;;;;;;;;;;;;;24.84;23.61;98439.47;5012099;28;19917;-80
2022/11/22 08:57:45;;;;;;;;;;;;;;;24.66;23.68;98447.41;4978435;28;19922;-78
2022/11/22 09:00:10;;;;;;;;;;;;;;;25.20;23.29;98435.25;4979447;28;19917;-85
2022/11/22 09:02:36;;;;;;;;;;;;;;;25.98;21.96;98441.09;4996620;28;20020;-82
2022/11/22 09:05:01;;;;;;;;;;;;;;;26.51;19.97;98439.59;4984661;28;20369;-83
2022/11/22 09:07:27;;;;;;;;;;;;;;;26.92;19.87;98431.81;5001819;28;20353;-83
2022/11/22 09:09:52;;;;;;;;;;;;;;;27.20;19.61;98434.63;5009117;28;19940;-86
2022/11/22 09:12:18;;;;;;;;;;;;;;;27.13;19.36;98430.41;5036482;28;19960;-80
2022/11/22 09:14:43;;;;;;;;;;;;;;;26.67;21.48;98422.09;5018994;28;19924;-82
2022/11/22 09:17:08;;;;;;;;;;;;;;;26.67;20.59;98422.88;5035392;28;19917;-86
2022/11/22 09:19:34;;;;;;;;;;;;;;;26.55;20.31;98411.31;5036536;28;19925;-84
2022/11/22 09:21:59;;;;;;;;;;;;;;;26.51;23.75;98405.59;5035050;28;20008;-86
2022/11/22 09:24:25;;;;;;;;;;;;;;;27.05;22.31;98391.41;5017594;28;19921;-83
2022/11/22 09:26:50;;;;;;;;;;;;;;;27.89;21.42;98398.31;5018021;28;19999;-79
2022/11/22 09:29:15;;;;;;;;;;;;;;;29.78;19.77;98405.97;5014909;28;20396;-78
2022/11/22 09:31:41;;;;;;;;;;;;;;;31.78;17.62;98394.47;5013913;28;19925;-80
2022/11/22 09:34:06;;;;;;;;;;;;;;;33.35;15.80;98373.28;5015203;28;20062;-78
2022/11/22 09:36:32;;;;;;;;;;;;;;;34.43;14.69;98361.91;5005842;28;20016;-77
2022/11/22 09:38:57;;;;;;;;;;;;;;;35.22;14.11;98344.66;5014354;28;19925;-81
2022/11/22 09:41:25;;;;;;;;;;;;;;;35.91;13.61;98338.16;4997540;28;20016;-81
2022/11/22 09:44:06;;;;;;;;;;;;;;;36.13;13.36;98337.56;5014763;28;19925;-80
2022/11/22 09:46:45;;;;;;;;;;;;;;;36.23;13.30;98334.69;5012986;28;19975;-79
2022/11/22 09:49:10;;;;;;;;;;;;;;;35.85;13.58;98330.06;5012355;28;19922;-81
2022/11/22 09:51:39;;;;;;;;;;;;;;;35.54;13.63;98335.09;5014221;28;19918;-78
2022/11/22 09:54:06;;;;;;;;;;;;;;;34.93;14.07;98334.69;4996470;28;19917;-80
2022/11/22 09:56:32;;;;;;;;;;;;;;;34.44;14.60;98341.03;4996826;28;20327;-80
2022/11/22 09:58:59;;;;;;;;;;;;;;;34.11;15.06;98338.03;5009108;28;19929;-81
2022/11/22 10:02:04;;;;;;;;;;;;;;;33.77;15.29;98333.34;4961865;28;19917;-80
2022/11/22 10:04:39;;;;;;;;;;;;;;;33.23;15.52;98334.91;4916495;29;19919;-79
2022/11/22 10:07:07;;;;;;;;;;;;;;;32.97;15.11;98337.66;4916602;29;19923;-80
2022/11/22 10:09:38;;;;;;;;;;;;;;;32.79;15.36;98332.81;4900478;29;20359;-81
2022/11/22 10:12:03;;;;;;;;;;;;;;;32.57;15.53;98331.16;4900568;29;19962;-80
2022/11/22 10:14:31;;;;;;;;;;;;;;;32.36;15.81;98321.47;4899610;29;20374;-80
2022/11/22 10:17:02;;;;;;;;;;;;;;;31.96;16.38;98318.44;4884794;29;19923;-81
2022/11/22 10:19:34;;;;;;;;;;;;;;;31.68;16.67;98330.50;4900466;29;19985;-82
2022/11/22 10:22:00;;;;;;;;;;;;;;;31.55;16.72;98334.50;4884569;29;19969;-80
2022/11/22 10:24:25;;;;;;;;;;;;;;;31.34;17.06;98336.25;4885596;29;19970;-83
2022/11/22 10:26:50;;;;;;;;;;;;;;;31.17;17.16;98329.19;4884950;29;20478;-81
2022/11/22 10:29:22;;;;;;;;;;;;;;;30.93;17.38;98331.44;4900205;29;19919;-83
2022/11/22 10:31:56;;;;;;;;;;;;;;;30.11;17.76;98334.25;4884962;29;20010;-82
2022/11/22 10:34:21;;;;;;;;;;;;;;;29.75;17.50;98341.13;4928396;28;19918;-81
2022/11/22 10:36:52;;;;;;;;;;;;;;;29.47;17.65;98334.06;4996183;28;19977;-83
2022/11/22 10:39:17;;;;;;;;;;;;;;;28.84;18.66;98335.06;4995725;28;19918;-82
2022/11/22 10:41:58;;;;;;;;;;;;;;;28.63;18.68;98333.94;4995985;28;19918;-81
2022/11/22 10:44:27;;;;;;;;;;;;;;;28.47;19.08;98332.84;4995330;28;20448;-80
2022/11/22 10:47:07;;;;;;;;;;;;;;;28.32;19.38;98324.53;4961718;28;20377;-83
2022/11/22 10:49:45;;;;;;;;;;;;;;;28.30;19.80;98326.66;4977058;28;19917;-79
2022/11/22 10:52:13;;;;;;;;;;;;;;;28.13;19.87;98331.97;4977300;28;19921;-80
2022/11/22 10:54:53;;;;;;;;;;;;;;;27.94;20.49;98325.97;4994872;28;19918;-81
2022/11/22 10:57:30;;;;;;;;;;;;;;;27.80;20.67;98320.09;4994429;28;20398;-81
2022/11/22 10:59:58;;;;;;;;;;;;;;;27.64;21.08;98323.53;4976721;28;19921;-80
2022/11/22 11:02:42;;;;;;;;;;;;;;;27.51;21.16;98336.16;4976743;28;20373;-80
2022/11/22 11:05:09;;;;;;;;;;;;;;;27.24;21.33;98328.59;4994261;28;20405;-81
2022/11/22 11:07:34;;;;;;;;;;;;;;;26.85;21.46;98324.78;4976226;28;19918;-81
2022/11/22 11:10:02;;;;;;;;;;;;;;;26.59;22.20;98318.81;4960781;28;19917;-80
2022/11/22 11:12:42;;;;;;;;;;;;;;;26.32;22.44;98321.91;4976696;28;20012;-80
2022/11/22 11:15:14;;;;;;;;;;;;;;;26.08;22.33;98310.34;4990646;28;19921;-80
2022/11/22 11:17:39;;;;;;;;;;;;;;;25.78;22.99;98319.13;5013814;28;19922;-79
2022/11/22 11:20:10;;;;;;;;;;;;;;;25.70;23.01;98310.63;5012775;28;19922;-80
2022/11/22 11:22:35;;;;;;;;;;;;;;;25.49;22.86;98311.91;4996120;28;19922;-79
2022/11/22 11:25:19;;;;;;;;;;;;;;;25.21;23.30;98318.56;4995871;28;19924;-81
2022/11/22 11:27:44;;;;;;;;;;;;;;;24.87;23.63;98318.88;5013840;28;19917;-82
2022/11/22 11:30:10;;;;;;;;;;;;;;;24.73;23.88;98312.88;5012552;28;20012;-80
2022/11/22 11:32:49;;;;;;;;;;;;;;;24.53;24.06;98314.88;4996032;28;19964;-80
2022/11/22 11:35:14;;;;;;;;;;;;;;;24.23;24.61;98310.16;4996093;28;20355;-79
2022/11/22 11:37:39;;;;;;;;;;;;;;;24.00;24.94;98306.22;4995422;28;19971;-80
2022/11/22 11:40:05;;;;;;;;;;;;;;;23.82;25.33;98303.41;4995941;28;20380;-80
2022/11/22 11:42:31;;;;;;;;;;;;;;;23.63;25.34;98297.16;5011655;28;19929;-80
2022/11/22 11:45:17;;;;;;;;;;;;;;;23.36;25.98;98302.56;4995971;28;19917;-83
2022/11/22 11:47:42;;;;;;;;;;;;;;;23.18;26.27;98289.91;5012312;28;19924;-78
2022/11/22 11:50:18;;;;;;;;;;;;;;;23.03;26.68;98292.81;5012035;28;20304;-78
2022/11/22 11:52:48;;;;;;;;;;;;;;;22.90;27.18;98288.31;4995310;28;19925;-77
2022/11/22 11:55:14;;;;;;;;;;;;;;;22.78;27.10;98274.00;5013319;28;19922;-79
2022/11/22 11:57:41;;;;;;;;;;;;;;;22.66;27.47;98281.81;4995653;28;19984;-79
2022/11/22 12:00:17;;;;;;;;;;;;;;;22.56;27.50;98276.91;5011596;28;19948;-79
2022/11/22 12:02:45;;;;;;;;;;;;;;;22.44;27.84;98280.38;4995318;28;20011;-80
2022/11/22 12:05:13;;;;;;;;;;;;;;;22.45;27.58;98285.50;4995044;28;20471;-80
2022/11/22 12:07:43;;;;;;;;;;;;;;;22.44;27.82;98283.88;4995703;28;19948;-77
2022/11/22 12:10:28;;;;;;;;;;;;;;;22.37;28.11;98285.69;5011446;28;19918;-80
2022/11/22 12:12:55;;;;;;;;;;;;;;;22.27;28.18;98275.44;5012885;28;20293;-78
2022/11/22 12:15:25;;;;;;;;;;;;;;;22.16;28.27;98281.38;4995016;28;19918;-77
2022/11/22 12:18:09;;;;;;;;;;;;;;;22.03;28.73;98282.97;4995172;28;19917;-78
2022/11/22 12:20:46;;;;;;;;;;;;;;;21.90;28.76;98282.13;5012522;28;20001;-78
2022/11/22 12:23:35;;;;;;;;;;;;;;;21.75;29.17;98283.13;5011549;28;19918;-79
2022/11/22 12:26:00;;;;;;;;;;;;;;;21.61;29.05;98279.59;4927676;29;19922;-78
2022/11/22 12:28:26;;;;;;;;;;;;;;;21.47;29.56;98275.22;4920779;29;19922;-77
2022/11/22 12:30:51;;;;;;;;;;;;;;;21.36;29.68;98292.53;4936149;29;19919;-77
2022/11/22 12:33:18;;;;;;;;;;;;;;;21.25;29.90;98287.81;4952379;29;19972;-78
2022/11/22 12:35:43;;;;;;;;;;;;;;;21.12;30.13;98292.00;4920693;29;20018;-78
2022/11/22 12:38:17;;;;;;;;;;;;;;;21.02;30.06;98286.25;4922312;29;20394;-80
2022/11/22 12:40:43;;;;;;;;;;;;;;;20.91;30.45;98295.56;4940100;29;19926;-77
2022/11/22 12:43:13;;;;;;;;;;;;;;;20.78;30.50;98285.69;4939866;29;19930;-79
2022/11/22 12:45:39;;;;;;;;;;;;;;;20.66;30.65;98281.94;4940039;29;19922;-77
2022/11/22 12:48:27;;;;;;;;;;;;;;;20.56;30.69;98270.84;4923670;29;20425;-78
2022/11/22 12:50:53;;;;;;;;;;;;;;;20.45;30.88;98271.34;4898686;29;20307;-79
2022/11/22 12:53:22;;;;;;;;;;;;;;;20.37;31.04;98265.19;4883147;29;20428;-75
2022/11/22 12:55:53;;;;;;;;;;;;;;;20.27;31.36;98264.66;4882847;29;20355;-79
2022/11/22 12:58:20;;;;;;;;;;;;;;;20.21;31.31;98270.75;4882774;29;19959;-78
2022/11/22 13:01:08;;;;;;;;;;;;;;;20.13;31.45;98273.50;4882735;29;20381;-77